Salvatorian Center, Wisconsin
Current Conditions -  °F | °C
As of 1:53 AM on Sunday 26 Oct 2014 (Local Time) from KSBM Reporting Station
Clear Clear  
Wind Chill: 40°   Ceiling: Unl
Heat Index: 45°   Visibility: 10mi
Dew Point: 30°   Wind: 9mph
Humidity: 56%   Direction: 300°WNW
Pressure: 29.94"   Gusts: NA
Location:  43.9485°N, 88.0849°W
Report Text: KSBM 260653Z AUTO 30008KT 10SM CLR 07/M01 A2994 RMK AO2 SLP142 T00721011
Loading
Personal Weather Stations






























Interactive Weather Map
Tropical Storm Tracking
New forecast layout! Learn more

10-Day Weather Forecast

Advertisements
Track Severe Weather on mobile